Time;durP1;ratioP1;P1;durP2;ratioP2;P2;SDS_P1;SDS_P2;PMS_P1;PMS_P2;Temp;Humidity;BMP_temperature;BMP_pressure;BME280_temperature;BME280_humidity;BME280_pressure;Samples;Min_cycle;Max_cycle;Signal;HPM_P1;HPM_P2
2021/06/10 00:00:05;;;;;;;;;;;19.30;54.90;;;;;;486632;245;1152;-45
2021/06/10 00:02:07;;;;;;;;;;;19.30;55.00;;;;;;486872;245;1280;-45
2021/06/10 00:04:08;;;;;;;;;;;19.30;55.00;;;;;;486756;245;1104;-45
2021/06/10 00:06:09;;;;;;;;;;;19.30;55.00;;;;;;486903;245;1142;-45
2021/06/10 00:08:10;;;;;;;;;;;19.30;55.00;;;;;;486840;245;1062;-45
2021/06/10 00:10:12;;;;;;;;;;;19.30;55.00;;;;;;486957;245;2190;-45
2021/06/10 00:12:13;;;;;;;;;;;19.30;55.00;;;;;;486860;245;1202;-45
2021/06/10 00:14:14;;;;;;;;;;;19.30;55.00;;;;;;486568;245;1154;-45
2021/06/10 00:16:16;;;;;;;;;;;19.30;55.00;;;;;;486851;243;1178;-45
2021/06/10 00:18:17;;;;;;;;;;;19.30;55.00;;;;;;486942;245;1632;-45
2021/06/10 00:20:19;;;;;;;;;;;19.30;55.00;;;;;;486517;245;1114;-44
2021/06/10 00:22:20;;;;;;;;;;;19.30;55.00;;;;;;486940;245;1336;-45
2021/06/10 00:24:21;;;;;;;;;;;19.30;54.90;;;;;;486841;245;1055;-45
2021/06/10 00:26:23;;;;;;;;;;;19.30;54.90;;;;;;486624;245;1084;-45
2021/06/10 00:28:24;;;;;;;;;;;19.30;55.00;;;;;;486753;245;1294;-45
2021/06/10 00:30:25;;;;;;;;;;;19.30;55.00;;;;;;486574;245;2132;-45
2021/06/10 00:32:27;;;;;;;;;;;19.30;55.00;;;;;;486925;245;1259;-45
2021/06/10 00:34:28;;;;;;;;;;;19.30;55.00;;;;;;486471;245;1116;-45
2021/06/10 00:36:29;;;;;;;;;;;19.30;55.00;;;;;;486523;245;1111;-45
2021/06/10 00:38:30;;;;;;;;;;;19.30;55.00;;;;;;486963;245;1248;-45
2021/06/10 00:40:32;;;;;;;;;;;19.30;55.00;;;;;;486693;245;1095;-45
2021/06/10 00:42:33;;;;;;;;;;;19.30;55.00;;;;;;486608;245;1131;-45
2021/06/10 00:44:34;;;;;;;;;;;19.30;55.00;;;;;;486756;245;1270;-45
2021/06/10 00:46:36;;;;;;;;;;;19.30;55.00;;;;;;486563;245;1245;-45
2021/06/10 00:48:37;;;;;;;;;;;19.30;55.00;;;;;;486803;245;1191;-45
2021/06/10 00:50:38;;;;;;;;;;;19.30;55.10;;;;;;486898;245;2190;-45
2021/06/10 00:52:39;;;;;;;;;;;19.30;55.00;;;;;;486940;245;1221;-45
2021/06/10 00:54:41;;;;;;;;;;;19.30;55.00;;;;;;486590;245;1141;-45
2021/06/10 00:56:42;;;;;;;;;;;19.30;55.00;;;;;;486904;245;1182;-44
2021/06/10 00:58:43;;;;;;;;;;;19.30;55.00;;;;;;487004;245;1020;-45
2021/06/10 01:00:44;;;;;;;;;;;19.30;55.00;;;;;;486562;245;1186;-45
2021/06/10 01:02:47;;;;;;;;;;;19.30;55.00;;;;;;486513;245;1221;-45
2021/06/10 01:04:47;;;;;;;;;;;19.30;55.00;;;;;;486439;245;2341;-45
2021/06/10 01:06:51;;;;;;;;;;;19.30;55.00;;;;;;486715;245;1124;-44
2021/06/10 01:08:50;;;;;;;;;;;19.30;55.00;;;;;;486388;245;1301;-45
2021/06/10 01:10:51;;;;;;;;;;;19.30;55.00;;;;;;486550;245;2132;-45
2021/06/10 01:12:52;;;;;;;;;;;19.30;55.00;;;;;;486477;245;1413;-45
2021/06/10 01:14:53;;;;;;;;;;;19.30;55.10;;;;;;486754;245;1143;-45
2021/06/10 01:16:55;;;;;;;;;;;19.30;55.00;;;;;;486492;245;1094;-45
2021/06/10 01:18:56;;;;;;;;;;;19.30;55.10;;;;;;486830;245;1042;-45
2021/06/10 01:20:57;;;;;;;;;;;19.30;55.10;;;;;;486321;245;1156;-45
2021/06/10 01:22:59;;;;;;;;;;;19.30;55.10;;;;;;486898;245;1209;-45
2021/06/10 01:25:00;;;;;;;;;;;19.30;55.00;;;;;;486497;245;1029;-45
2021/06/10 01:27:01;;;;;;;;;;;19.30;55.10;;;;;;486801;245;1195;-44
2021/06/10 01:29:02;;;;;;;;;;;19.30;55.00;;;;;;486886;245;1205;-45
2021/06/10 01:31:04;;;;;;;;;;;19.30;55.10;;;;;;486576;245;2127;-45
2021/06/10 01:33:05;;;;;;;;;;;19.30;55.00;;;;;;486484;245;1087;-45
2021/06/10 01:35:06;;;;;;;;;;;19.30;55.00;;;;;;486432;245;1012;-44
2021/06/10 01:37:08;;;;;;;;;;;19.30;55.00;;;;;;486433;245;1192;-45
2021/06/10 01:39:09;;;;;;;;;;;19.30;55.10;;;;;;486808;245;1035;-45
2021/06/10 01:41:10;;;;;;;;;;;19.30;55.00;;;;;;486639;245;1264;-45
2021/06/10 01:43:11;;;;;;;;;;;19.30;55.00;;;;;;486896;245;1060;-45
2021/06/10 01:45:13;;;;;;;;;;;19.30;55.00;;;;;;486735;245;1153;-45
2021/06/10 01:47:14;;;;;;;;;;;19.20;55.10;;;;;;486578;245;1241;-45
2021/06/10 01:49:16;;;;;;;;;;;19.30;55.10;;;;;;486931;245;1046;-45
2021/06/10 01:51:17;;;;;;;;;;;19.30;55.10;;;;;;486446;245;1334;-45
2021/06/10 01:53:18;;;;;;;;;;;19.20;55.00;;;;;;486515;245;1050;-45
2021/06/10 01:55:19;;;;;;;;;;;19.30;55.10;;;;;;486932;245;1144;-45
2021/06/10 01:57:20;;;;;;;;;;;19.30;55.10;;;;;;486485;245;1301;-45
2021/06/10 01:59:22;;;;;;;;;;;19.20;55.00;;;;;;486917;245;1065;-45
2021/06/10 02:01:23;;;;;;;;;;;19.20;55.00;;;;;;486454;245;1168;-45
2021/06/10 02:03:24;;;;;;;;;;;19.30;55.00;;;;;;486483;245;1177;-45
2021/06/10 02:05:25;;;;;;;;;;;19.30;55.10;;;;;;487061;245;1062;-44
2021/06/10 02:07:27;;;;;;;;;;;19.30;55.10;;;;;;486438;245;1487;-45
2021/06/10 02:09:28;;;;;;;;;;;19.30;55.10;;;;;;486558;245;2199;-45
2021/06/10 02:11:29;;;;;;;;;;;19.30;55.10;;;;;;486511;245;1378;-45
2021/06/10 02:13:31;;;;;;;;;;;19.30;55.10;;;;;;486528;245;1087;-45
2021/06/10 02:15:32;;;;;;;;;;;19.30;55.00;;;;;;486810;245;1211;-45
2021/06/10 02:17:33;;;;;;;;;;;19.30;55.10;;;;;;486426;245;1607;-45
2021/06/10 02:19:34;;;;;;;;;;;19.30;55.10;;;;;;486705;245;1058;-45
2021/06/10 02:21:36;;;;;;;;;;;19.20;55.10;;;;;;486576;242;1114;-45
2021/06/10 02:23:37;;;;;;;;;;;19.20;55.10;;;;;;486525;245;1066;-45
2021/06/10 02:25:38;;;;;;;;;;;19.20;55.10;;;;;;486603;245;1078;-45
2021/06/10 02:27:40;;;;;;;;;;;19.20;55.10;;;;;;486965;245;1175;-45
2021/06/10 02:29:41;;;;;;;;;;;19.30;55.10;;;;;;486986;245;2143;-45
2021/06/10 02:31:42;;;;;;;;;;;19.20;55.10;;;;;;486484;245;1350;-45
2021/06/10 02:33:43;;;;;;;;;;;19.30;55.10;;;;;;486542;245;1083;-45
2021/06/10 02:35:45;;;;;;;;;;;19.30;55.10;;;;;;486492;245;1039;-45
2021/06/10 02:37:46;;;;;;;;;;;19.30;55.10;;;;;;486904;245;1078;-45
2021/06/10 02:39:47;;;;;;;;;;;19.30;55.10;;;;;;486843;245;1096;-45
2021/06/10 02:41:49;;;;;;;;;;;19.20;55.10;;;;;;486394;245;1158;-45
2021/06/10 02:43:50;;;;;;;;;;;19.30;55.10;;;;;;486912;245;1182;-45
2021/06/10 02:45:51;;;;;;;;;;;19.30;55.10;;;;;;486467;245;1181;-45
2021/06/10 02:47:52;;;;;;;;;;;19.30;55.10;;;;;;486763;245;1095;-45
2021/06/10 02:49:54;;;;;;;;;;;19.30;55.10;;;;;;486495;245;2204;-45
2021/06/10 02:51:55;;;;;;;;;;;19.30;55.10;;;;;;486566;245;1361;-45
2021/06/10 02:53:56;;;;;;;;;;;19.20;55.10;;;;;;486532;245;1056;-45
2021/06/10 02:55:58;;;;;;;;;;;19.20;55.10;;;;;;486588;245;1374;-45
2021/06/10 02:57:59;;;;;;;;;;;19.30;55.10;;;;;;486961;244;1085;-45
2021/06/10 03:00:00;;;;;;;;;;;19.20;55.10;;;;;;487014;245;1047;-45
2021/06/10 03:02:01;;;;;;;;;;;19.20;55.10;;;;;;486647;245;1203;-45
2021/06/10 03:04:03;;;;;;;;;;;19.20;55.10;;;;;;486730;245;1125;-45
2021/06/10 03:06:04;;;;;;;;;;;19.20;55.10;;;;;;486829;245;1317;-45
2021/06/10 03:08:05;;;;;;;;;;;19.20;55.10;;;;;;486526;245;1194;-45
2021/06/10 03:10:06;;;;;;;;;;;19.20;55.10;;;;;;486861;245;2155;-45
2021/06/10 03:12:08;;;;;;;;;;;19.20;55.00;;;;;;486945;245;1154;-45
2021/06/10 03:14:09;;;;;;;;;;;19.30;55.10;;;;;;487003;245;1026;-45
2021/06/10 03:16:10;;;;;;;;;;;19.20;55.10;;;;;;486716;245;1221;-45
2021/06/10 03:18:12;;;;;;;;;;;19.20;55.00;;;;;;487016;245;1134;-45
2021/06/10 03:20:13;;;;;;;;;;;19.20;55.10;;;;;;486975;245;1073;-45
2021/06/10 03:22:14;;;;;;;;;;;19.30;55.10;;;;;;486863;245;1274;-45
2021/06/10 03:24:15;;;;;;;;;;;19.20;55.10;;;;;;486945;245;1216;-44
2021/06/10 03:26:17;;;;;;;;;;;19.20;55.10;;;;;;486919;245;1030;-45
2021/06/10 03:28:18;;;;;;;;;;;19.20;55.10;;;;;;486829;245;1209;-45
2021/06/10 03:30:19;;;;;;;;;;;19.20;55.20;;;;;;486988;245;2146;-45
2021/06/10 03:32:21;;;;;;;;;;;19.30;55.10;;;;;;486476;245;1276;-45
2021/06/10 03:34:22;;;;;;;;;;;19.20;55.10;;;;;;486566;245;1126;-45
2021/06/10 03:36:23;;;;;;;;;;;19.20;55.10;;;;;;486461;245;1134;-45
2021/06/10 03:38:24;;;;;;;;;;;19.30;55.10;;;;;;486969;245;1106;-45
2021/06/10 03:40:26;;;;;;;;;;;19.20;55.10;;;;;;486974;245;1228;-45
2021/06/10 03:42:28;;;;;;;;;;;19.20;55.10;;;;;;486647;245;1146;-45
2021/06/10 03:44:28;;;;;;;;;;;19.20;55.10;;;;;;486870;245;1250;-45
2021/06/10 03:46:29;;;;;;;;;;;19.20;55.10;;;;;;486711;245;1230;-45
2021/06/10 03:48:31;;;;;;;;;;;19.20;55.20;;;;;;486531;245;1077;-45
2021/06/10 03:50:32;;;;;;;;;;;19.20;55.10;;;;;;486945;245;2189;-45
2021/06/10 03:52:33;;;;;;;;;;;19.20;55.10;;;;;;486688;245;1057;-45
2021/06/10 03:54:35;;;;;;;;;;;19.20;55.10;;;;;;486950;245;1075;-45
2021/06/10 03:56:36;;;;;;;;;;;19.20;55.20;;;;;;486723;245;1274;-45
2021/06/10 03:58:37;;;;;;;;;;;19.20;55.10;;;;;;486861;245;1082;-45
2021/06/10 04:00:39;;;;;;;;;;;19.20;55.10;;;;;;486928;245;1575;-44
2021/06/10 04:02:40;;;;;;;;;;;19.20;55.20;;;;;;486465;245;1180;-45
2021/06/10 04:04:41;;;;;;;;;;;19.20;55.20;;;;;;486519;245;1140;-45
2021/06/10 04:06:42;;;;;;;;;;;19.30;55.10;;;;;;486538;245;1280;-45
2021/06/10 04:08:44;;;;;;;;;;;19.20;55.10;;;;;;486492;245;1229;-45
2021/06/10 04:10:45;;;;;;;;;;;19.30;55.20;;;;;;486781;245;2140;-45
2021/06/10 04:12:46;;;;;;;;;;;19.20;55.10;;;;;;486483;245;1274;-45
2021/06/10 04:14:48;;;;;;;;;;;19.20;55.10;;;;;;486886;245;1030;-45
2021/06/10 04:16:49;;;;;;;;;;;19.20;55.10;;;;;;486479;245;1215;-45
2021/06/10 04:18:50;;;;;;;;;;;19.20;55.10;;;;;;486890;245;1097;-45
2021/06/10 04:20:52;;;;;;;;;;;19.30;55.10;;;;;;486921;245;1743;-45
2021/06/10 04:22:53;;;;;;;;;;;19.20;55.10;;;;;;486806;245;1568;-45
2021/06/10 04:24:54;;;;;;;;;;;19.20;55.10;;;;;;486868;245;1093;-45
2021/06/10 04:26:56;;;;;;;;;;;19.20;55.10;;;;;;486347;245;1263;-45
2021/06/10 04:28:57;;;;;;;;;;;19.20;55.10;;;;;;486434;245;1189;-45
2021/06/10 04:30:59;;;;;;;;;;;19.20;55.10;;;;;;486552;245;2135;-45
2021/06/10 04:33:00;;;;;;;;;;;19.20;55.10;;;;;;486476;245;1862;-45
2021/06/10 04:35:02;;;;;;;;;;;19.20;55.10;;;;;;486836;245;1777;-45
2021/06/10 04:37:02;;;;;;;;;;;19.20;55.10;;;;;;486294;244;2215;-45
2021/06/10 04:39:04;;;;;;;;;;;19.20;55.10;;;;;;486444;245;1092;-45
2021/06/10 04:41:05;;;;;;;;;;;19.20;55.10;;;;;;486250;245;1154;-45
2021/06/10 04:43:07;;;;;;;;;;;19.20;55.10;;;;;;486219;245;1097;-45
2021/06/10 04:45:09;;;;;;;;;;;19.20;55.10;;;;;;486373;245;1048;-45
2021/06/10 04:47:09;;;;;;;;;;;19.20;55.20;;;;;;486203;245;1913;-45
2021/06/10 04:49:12;;;;;;;;;;;19.20;55.20;;;;;;486512;245;1101;-45
2021/06/10 04:51:12;;;;;;;;;;;19.20;55.20;;;;;;486397;245;2203;-45
2021/06/10 04:53:14;;;;;;;;;;;19.20;55.30;;;;;;486424;245;1230;-45
2021/06/10 04:55:15;;;;;;;;;;;19.20;55.30;;;;;;486763;245;1166;-45
2021/06/10 04:57:16;;;;;;;;;;;19.20;55.20;;;;;;486285;245;1126;-45
2021/06/10 04:59:17;;;;;;;;;;;19.20;55.10;;;;;;486423;245;1091;-45
2021/06/10 05:01:18;;;;;;;;;;;19.20;55.20;;;;;;486310;245;1162;-45
2021/06/10 05:03:22;;;;;;;;;;;19.20;55.20;;;;;;486313;245;1199;-45
2021/06/10 05:05:23;;;;;;;;;;;19.20;55.20;;;;;;486208;245;1040;-45
2021/06/10 05:07:24;;;;;;;;;;;19.20;55.20;;;;;;486213;245;1323;-45
2021/06/10 05:09:25;;;;;;;;;;;19.20;55.20;;;;;;486244;245;1092;-45
2021/06/10 05:11:27;;;;;;;;;;;19.20;55.20;;;;;;486579;245;2206;-45
2021/06/10 05:13:28;;;;;;;;;;;19.20;55.20;;;;;;486272;245;1215;-45
2021/06/10 05:15:29;;;;;;;;;;;19.20;55.10;;;;;;486288;245;1069;-45
2021/06/10 05:17:30;;;;;;;;;;;19.20;55.20;;;;;;486442;245;1309;-45
2021/06/10 05:19:32;;;;;;;;;;;19.20;55.20;;;;;;486470;245;1111;-45
2021/06/10 05:21:33;;;;;;;;;;;19.20;55.20;;;;;;486407;245;1357;-45
2021/06/10 05:23:35;;;;;;;;;;;19.20;55.30;;;;;;486235;245;1288;-45
2021/06/10 05:25:35;;;;;;;;;;;19.20;55.20;;;;;;486142;245;1237;-45
2021/06/10 05:27:37;;;;;;;;;;;19.20;55.20;;;;;;486672;245;1287;-45
2021/06/10 05:29:38;;;;;;;;;;;19.20;55.20;;;;;;486256;245;1045;-45
2021/06/10 05:31:39;;;;;;;;;;;19.20;55.20;;;;;;486326;245;2131;-45
2021/06/10 05:33:41;;;;;;;;;;;19.20;55.20;;;;;;486396;245;1183;-45
2021/06/10 05:35:42;;;;;;;;;;;19.20;55.20;;;;;;486533;245;1057;-45
2021/06/10 05:37:43;;;;;;;;;;;19.20;55.20;;;;;;486240;245;1164;-45
2021/06/10 05:39:44;;;;;;;;;;;19.20;55.20;;;;;;486245;245;1329;-45
2021/06/10 05:41:46;;;;;;;;;;;19.20;55.20;;;;;;486183;241;1215;-45
2021/06/10 05:43:48;;;;;;;;;;;19.20;55.30;;;;;;486103;245;1097;-45
2021/06/10 05:45:48;;;;;;;;;;;19.20;55.30;;;;;;486209;245;1605;-45
2021/06/10 05:47:50;;;;;;;;;;;19.20;55.20;;;;;;486050;245;1231;-45
2021/06/10 05:49:51;;;;;;;;;;;19.20;55.20;;;;;;486027;245;1437;-45
2021/06/10 05:51:52;;;;;;;;;;;19.20;55.30;;;;;;485997;245;2135;-45
2021/06/10 05:53:53;;;;;;;;;;;19.20;55.20;;;;;;485915;245;1105;-44
2021/06/10 05:55:55;;;;;;;;;;;19.20;55.20;;;;;;486091;245;1258;-45
2021/06/10 05:57:56;;;;;;;;;;;19.20;55.30;;;;;;486056;245;1186;-45
2021/06/10 05:59:57;;;;;;;;;;;19.20;55.30;;;;;;486016;245;1110;-45
2021/06/10 06:01:58;;;;;;;;;;;19.20;55.20;;;;;;486097;245;1219;-45
2021/06/10 06:04:00;;;;;;;;;;;19.20;55.20;;;;;;486097;245;1229;-45
2021/06/10 06:06:01;;;;;;;;;;;19.20;55.30;;;;;;486060;245;1250;-45
2021/06/10 06:08:02;;;;;;;;;;;19.20;55.30;;;;;;485922;245;1483;-45
2021/06/10 06:10:04;;;;;;;;;;;19.20;55.30;;;;;;486047;245;1124;-45
2021/06/10 06:12:06;;;;;;;;;;;19.20;55.20;;;;;;486083;245;2195;-45
2021/06/10 06:14:07;;;;;;;;;;;19.20;55.20;;;;;;485945;244;2194;-45
2021/06/10 06:16:08;;;;;;;;;;;19.20;55.30;;;;;;486318;243;1282;-45
2021/06/10 06:18:10;;;;;;;;;;;19.20;55.20;;;;;;486128;245;1093;-45
2021/06/10 06:20:11;;;;;;;;;;;19.20;55.20;;;;;;486008;245;1190;-45
2021/06/10 06:22:13;;;;;;;;;;;19.20;55.30;;;;;;486184;245;1520;-45
2021/06/10 06:24:14;;;;;;;;;;;19.20;55.20;;;;;;486046;245;1093;-45
2021/06/10 06:26:16;;;;;;;;;;;19.20;55.20;;;;;;486033;245;1216;-45
2021/06/10 06:28:17;;;;;;;;;;;19.20;55.20;;;;;;485863;245;1138;-45
2021/06/10 06:30:18;;;;;;;;;;;19.20;55.20;;;;;;485700;245;1151;-45
2021/06/10 06:32:20;;;;;;;;;;;19.20;55.30;;;;;;485982;245;2132;-45
2021/06/10 06:34:21;;;;;;;;;;;19.20;55.20;;;;;;485708;245;1163;-45
2021/06/10 06:36:22;;;;;;;;;;;19.20;55.20;;;;;;485920;241;1159;-45
2021/06/10 06:38:23;;;;;;;;;;;19.20;55.20;;;;;;486381;245;1196;-45
2021/06/10 06:40:26;;;;;;;;;;;19.20;55.30;;;;;;485936;245;1079;-45
2021/06/10 06:42:26;;;;;;;;;;;19.20;55.30;;;;;;485866;244;2659;-45
2021/06/10 06:44:27;;;;;;;;;;;19.20;55.20;;;;;;485838;245;1081;-45
2021/06/10 06:46:29;;;;;;;;;;;19.20;55.20;;;;;;485676;245;1402;-45
2021/06/10 06:48:30;;;;;;;;;;;19.20;55.30;;;;;;485986;245;1170;-45
2021/06/10 06:50:31;;;;;;;;;;;19.20;55.20;;;;;;485804;245;1136;-45
2021/06/10 06:52:33;;;;;;;;;;;19.20;55.20;;;;;;485844;245;2182;-45
2021/06/10 06:54:34;;;;;;;;;;;19.20;55.20;;;;;;486025;245;1282;-44
2021/06/10 06:56:35;;;;;;;;;;;19.20;55.20;;;;;;485901;243;1251;-45
2021/06/10 06:58:38;;;;;;;;;;;19.20;55.20;;;;;;485726;245;1184;-45
2021/06/10 07:00:38;;;;;;;;;;;19.20;55.20;;;;;;485809;245;1876;-45
2021/06/10 07:02:40;;;;;;;;;;;19.20;55.20;;;;;;485795;245;1711;-45
2021/06/10 07:04:41;;;;;;;;;;;19.20;55.20;;;;;;485734;245;1168;-45
2021/06/10 07:06:42;;;;;;;;;;;19.20;55.30;;;;;;485781;245;1375;-45
2021/06/10 07:08:43;;;;;;;;;;;19.20;55.30;;;;;;485708;245;1153;-45
2021/06/10 07:10:45;;;;;;;;;;;19.20;55.30;;;;;;485687;245;1427;-45
2021/06/10 07:12:46;;;;;;;;;;;19.20;55.30;;;;;;485651;245;2428;-45
2021/06/10 07:14:47;;;;;;;;;;;19.20;55.30;;;;;;485675;245;1217;-45
2021/06/10 07:16:49;;;;;;;;;;;19.20;55.30;;;;;;485703;245;1214;-44
2021/06/10 07:18:50;;;;;;;;;;;19.20;55.30;;;;;;485690;245;1095;-45
2021/06/10 07:20:51;;;;;;;;;;;19.20;55.30;;;;;;485706;245;1246;-45
2021/06/10 07:22:52;;;;;;;;;;;19.20;55.20;;;;;;485689;245;1238;-44
2021/06/10 07:24:54;;;;;;;;;;;19.20;55.30;;;;;;485624;245;1202;-45
2021/06/10 07:26:55;;;;;;;;;;;19.20;55.20;;;;;;485782;245;1301;-45
2021/06/10 07:28:56;;;;;;;;;;;19.20;55.30;;;;;;486113;245;1348;-44
2021/06/10 07:30:58;;;;;;;;;;;19.20;55.30;;;;;;485822;245;1348;-45
2021/06/10 07:32:59;;;;;;;;;;;19.20;55.30;;;;;;486059;245;2199;-45
2021/06/10 07:35:00;;;;;;;;;;;19.30;55.20;;;;;;485895;245;1220;-45
2021/06/10 07:37:01;;;;;;;;;;;19.50;54.30;;;;;;485928;245;1306;-45
2021/06/10 07:39:03;;;;;;;;;;;19.80;53.60;;;;;;485908;245;1221;-45
2021/06/10 07:41:04;;;;;;;;;;;20.00;52.90;;;;;;485782;245;1128;-45
2021/06/10 07:43:05;;;;;;;;;;;20.20;52.60;;;;;;485740;245;1167;-45
2021/06/10 07:45:06;;;;;;;;;;;20.30;52.30;;;;;;485859;245;1327;-45
2021/06/10 07:47:08;;;;;;;;;;;20.40;52.10;;;;;;485711;245;1345;-45
2021/06/10 07:49:09;;;;;;;;;;;20.40;51.80;;;;;;485637;245;1150;-45
2021/06/10 07:51:11;;;;;;;;;;;20.50;51.80;;;;;;485609;245;1215;-45
2021/06/10 07:53:12;;;;;;;;;;;20.50;51.50;;;;;;485583;245;2182;-45
2021/06/10 07:55:13;;;;;;;;;;;20.60;51.50;;;;;;485751;245;1320;-45
2021/06/10 07:57:14;;;;;;;;;;;20.60;51.40;;;;;;485577;245;1323;-45
2021/06/10 07:59:22;;;;;;;;;;;20.70;51.30;;;;;;485781;245;1164;-45
2021/06/10 08:01:17;;;;;;;;;;;20.70;51.10;;;;;;485280;245;1537;-45
2021/06/10 08:03:19;;;;;;;;;;;20.70;51.10;;;;;;485667;245;1092;-45
2021/06/10 08:05:20;;;;;;;;;;;20.80;51.00;;;;;;485513;245;1172;-45
2021/06/10 08:07:21;;;;;;;;;;;20.80;51.00;;;;;;485585;245;1270;-45
2021/06/10 08:09:23;;;;;;;;;;;20.80;50.90;;;;;;485669;245;1124;-45
2021/06/10 08:11:24;;;;;;;;;;;20.80;50.80;;;;;;485645;245;1268;-45
2021/06/10 08:13:26;;;;;;;;;;;20.90;50.70;;;;;;485640;245;1122;-45
2021/06/10 08:15:27;;;;;;;;;;;20.90;50.70;;;;;;485742;245;1162;-45
2021/06/10 08:17:30;;;;;;;;;;;21.00;50.70;;;;;;485691;245;1176;-45
2021/06/10 08:19:29;;;;;;;;;;;20.90;50.60;;;;;;485852;244;2113;-45
2021/06/10 08:21:31;;;;;;;;;;;21.00;50.60;;;;;;485738;245;1180;-45
2021/06/10 08:23:32;;;;;;;;;;;21.00;50.50;;;;;;485871;245;1142;-45
2021/06/10 08:25:34;;;;;;;;;;;21.10;50.50;;;;;;485811;245;1114;-45
2021/06/10 08:27:35;;;;;;;;;;;21.10;50.50;;;;;;485676;245;1137;-45
2021/06/10 08:29:36;;;;;;;;;;;21.00;50.40;;;;;;485658;245;1209;-45
2021/06/10 08:31:37;;;;;;;;;;;21.10;50.30;;;;;;485773;245;2135;-45
2021/06/10 08:33:39;;;;;;;;;;;21.10;50.30;;;;;;485718;245;1128;-45
2021/06/10 08:35:40;;;;;;;;;;;21.20;50.30;;;;;;485521;245;1198;-45
2021/06/10 08:37:42;;;;;;;;;;;21.20;50.20;;;;;;485428;245;1115;-45
2021/06/10 08:39:43;;;;;;;;;;;21.20;50.20;;;;;;485667;245;1256;-45
2021/06/10 08:41:44;;;;;;;;;;;21.20;50.10;;;;;;485524;245;1415;-45
2021/06/10 08:43:47;;;;;;;;;;;21.20;50.10;;;;;;485649;245;1122;-45
2021/06/10 08:45:48;;;;;;;;;;;21.20;50.10;;;;;;485460;245;1193;-45
2021/06/10 08:47:50;;;;;;;;;;;21.30;50.10;;;;;;485584;245;1206;-45
2021/06/10 08:49:51;;;;;;;;;;;21.30;50.00;;;;;;485652;245;1159;-45
2021/06/10 08:51:52;;;;;;;;;;;21.30;49.90;;;;;;485599;245;2152;-45
2021/06/10 08:53:56;;;;;;;;;;;21.30;49.90;;;;;;485791;245;1109;-45
2021/06/10 08:55:56;;;;;;;;;;;21.30;49.90;;;;;;485631;245;2367;-45
2021/06/10 08:57:57;;;;;;;;;;;21.30;49.80;;;;;;485734;245;1941;-45
2021/06/10 08:59:58;;;;;;;;;;;21.30;49.80;;;;;;485552;244;1117;-45
2021/06/10 09:01:59;;;;;;;;;;;21.40;49.90;;;;;;485487;245;1173;-45
2021/06/10 09:04:01;;;;;;;;;;;21.40;49.80;;;;;;485426;245;1131;-45
2021/06/10 09:06:02;;;;;;;;;;;21.40;49.70;;;;;;485453;245;1176;-45
2021/06/10 09:08:05;;;;;;;;;;;21.40;49.70;;;;;;485382;245;1139;-45
2021/06/10 09:10:04;;;;;;;;;;;21.50;49.70;;;;;;485421;245;1454;-45
2021/06/10 09:12:07;;;;;;;;;;;21.50;49.70;;;;;;485622;245;2132;-45
2021/06/10 09:14:07;;;;;;;;;;;21.50;49.70;;;;;;485379;244;2137;-45
2021/06/10 09:16:09;;;;;;;;;;;21.50;49.60;;;;;;485462;245;1370;-45
2021/06/10 09:18:10;;;;;;;;;;;21.50;49.60;;;;;;485458;245;1276;-45
2021/06/10 09:20:11;;;;;;;;;;;21.50;49.60;;;;;;485727;245;1309;-45
2021/06/10 09:22:13;;;;;;;;;;;21.50;49.60;;;;;;485576;245;1238;-45
2021/06/10 09:24:14;;;;;;;;;;;21.50;49.50;;;;;;485572;245;1084;-45
2021/06/10 09:26:15;;;;;;;;;;;21.50;49.50;;;;;;485533;245;1202;-45
2021/06/10 09:28:16;;;;;;;;;;;21.60;49.50;;;;;;485466;245;1146;-45
2021/06/10 09:30:18;;;;;;;;;;;21.60;49.50;;;;;;485641;245;1158;-45
2021/06/10 09:32:19;;;;;;;;;;;21.60;49.50;;;;;;485525;245;2186;-45
2021/06/10 09:34:20;;;;;;;;;;;21.60;49.40;;;;;;485748;245;1083;-45
2021/06/10 09:36:24;;;;;;;;;;;21.60;49.40;;;;;;485628;245;1235;-45
2021/06/10 09:38:24;;;;;;;;;;;21.60;49.40;;;;;;485663;245;2144;-45
2021/06/10 09:40:24;;;;;;;;;;;21.70;49.40;;;;;;485719;245;1380;-45
2021/06/10 09:42:26;;;;;;;;;;;21.70;49.40;;;;;;485651;245;1132;-45
2021/06/10 09:44:27;;;;;;;;;;;21.70;49.30;;;;;;485641;245;1185;-45
2021/06/10 09:46:28;;;;;;;;;;;21.70;49.30;;;;;;485609;245;1143;-45
2021/06/10 09:48:30;;;;;;;;;;;21.70;49.30;;;;;;485595;245;1257;-45
2021/06/10 09:50:31;;;;;;;;;;;21.70;49.30;;;;;;485513;245;1373;-45
2021/06/10 09:52:32;;;;;;;;;;;21.70;49.40;;;;;;485338;245;2194;-45
2021/06/10 09:54:33;;;;;;;;;;;21.70;49.30;;;;;;485686;245;1168;-45
2021/06/10 09:56:35;;;;;;;;;;;21.70;49.30;;;;;;485579;245;1286;-45
2021/06/10 09:58:38;;;;;;;;;;;21.70;49.30;;;;;;484987;245;1293;-45
2021/06/10 10:00:37;;;;;;;;;;;21.80;49.30;;;;;;485318;245;2155;-45
2021/06/10 10:02:39;;;;;;;;;;;21.70;49.20;;;;;;485580;245;1204;-45
2021/06/10 10:04:40;;;;;;;;;;;21.80;49.30;;;;;;485429;245;1487;-45
2021/06/10 10:06:41;;;;;;;;;;;21.70;49.30;;;;;;485611;245;1302;-45
2021/06/10 10:08:42;;;;;;;;;;;21.80;49.30;;;;;;485190;245;1219;-45
2021/06/10 10:10:44;;;;;;;;;;;21.80;49.30;;;;;;485613;245;1286;-45
2021/06/10 10:12:46;;;;;;;;;;;21.80;49.30;;;;;;485845;245;2167;-45
2021/06/10 10:14:46;;;;;;;;;;;21.80;49.20;;;;;;485549;244;2289;-45
2021/06/10 10:16:48;;;;;;;;;;;21.80;49.30;;;;;;485601;245;1236;-45
2021/06/10 10:18:50;;;;;;;;;;;21.80;49.30;;;;;;485547;245;1773;-45
2021/06/10 10:20:51;;;;;;;;;;;21.80;49.20;;;;;;485758;245;1996;-45
2021/06/10 10:22:52;;;;;;;;;;;21.90;49.30;;;;;;485918;245;1128;-45
2021/06/10 10:24:53;;;;;;;;;;;21.80;49.20;;;;;;485545;245;1174;-45
2021/06/10 10:26:55;;;;;;;;;;;21.80;49.20;;;;;;485512;245;1122;-45
2021/06/10 10:28:56;;;;;;;;;;;21.90;49.20;;;;;;485592;245;1094;-45
2021/06/10 10:30:57;;;;;;;;;;;21.80;49.10;;;;;;485668;245;1300;-45
2021/06/10 10:32:59;;;;;;;;;;;21.90;49.20;;;;;;485968;245;2187;-45
2021/06/10 10:35:00;;;;;;;;;;;21.90;49.20;;;;;;485539;245;1238;-45
2021/06/10 10:37:01;;;;;;;;;;;21.90;49.20;;;;;;485787;245;1276;-45
2021/06/10 10:39:02;;;;;;;;;;;21.90;49.20;;;;;;486216;245;1264;-45
2021/06/10 10:41:04;;;;;;;;;;;21.90;49.20;;;;;;485560;245;1121;-45
2021/06/10 10:43:05;;;;;;;;;;;21.80;49.20;;;;;;485728;245;1075;-45
2021/06/10 10:45:06;;;;;;;;;;;21.80;49.30;;;;;;485500;245;1213;-45
2021/06/10 10:47:09;;;;;;;;;;;21.90;49.20;;;;;;485511;245;1230;-45
2021/06/10 10:49:10;;;;;;;;;;;21.90;49.20;;;;;;485557;245;1939;-45
2021/06/10 10:51:11;;;;;;;;;;;21.90;49.20;;;;;;485480;245;1174;-45
2021/06/10 10:53:15;;;;;;;;;;;21.90;49.20;;;;;;485542;245;2179;-45
2021/06/10 10:55:14;;;;;;;;;;;21.90;49.10;;;;;;485583;244;2199;-45
2021/06/10 10:57:16;;;;;;;;;;;21.90;49.10;;;;;;485620;245;1278;-45
2021/06/10 10:59:17;;;;;;;;;;;21.90;49.10;;;;;;485736;245;1309;-45
2021/06/10 11:01:19;;;;;;;;;;;21.90;49.10;;;;;;485686;245;1085;-45
2021/06/10 11:03:20;;;;;;;;;;;22.00;49.10;;;;;;485748;245;1212;-45
2021/06/10 11:05:21;;;;;;;;;;;21.90;49.20;;;;;;485603;245;1341;-45
2021/06/10 11:07:22;;;;;;;;;;;22.00;49.00;;;;;;485542;245;1172;-45
2021/06/10 11:09:25;;;;;;;;;;;21.90;49.20;;;;;;485546;245;1134;-45
2021/06/10 11:11:25;;;;;;;;;;;21.60;49.90;;;;;;485898;244;2313;-45
2021/06/10 11:13:27;;;;;;;;;;;21.20;50.80;;;;;;486406;245;2194;-45
2021/06/10 11:15:30;;;;;;;;;;;21.00;51.60;;;;;;486372;245;870;-45
2021/06/10 11:17:29;;;;;;;;;;;20.90;52.10;;;;;;485635;245;1367;-45
2021/06/10 11:19:31;;;;;;;;;;;20.70;52.50;;;;;;485596;245;1230;-45
2021/06/10 11:21:32;;;;;;;;;;;20.60;52.80;;;;;;485643;245;1180;-45
2021/06/10 11:23:33;;;;;;;;;;;20.50;52.90;;;;;;485814;245;1106;-45
2021/06/10 11:25:36;;;;;;;;;;;20.40;53.10;;;;;;485663;245;1132;-45
2021/06/10 11:27:36;;;;;;;;;;;20.40;53.20;;;;;;485550;245;2240;-45
2021/06/10 11:29:37;;;;;;;;;;;20.40;53.20;;;;;;485982;245;1082;-45
2021/06/10 11:31:40;;;;;;;;;;;20.30;53.40;;;;;;485630;245;1306;-45
2021/06/10 11:33:40;;;;;;;;;;;20.30;53.60;;;;;;485614;244;2203;-45
2021/06/10 11:35:41;;;;;;;;;;;20.20;53.60;;;;;;485558;245;1175;-45
2021/06/10 11:37:42;;;;;;;;;;;20.20;53.60;;;;;;485408;245;1215;-45
2021/06/10 11:39:44;;;;;;;;;;;20.20;53.70;;;;;;485678;245;1106;-45
2021/06/10 11:41:45;;;;;;;;;;;20.10;53.80;;;;;;485572;245;1287;-45
2021/06/10 11:43:47;;;;;;;;;;;20.10;53.90;;;;;;485710;245;1084;-45
2021/06/10 11:45:48;;;;;;;;;;;20.10;54.00;;;;;;485617;245;1674;-45
2021/06/10 11:47:49;;;;;;;;;;;20.10;54.10;;;;;;485619;245;1231;-45
2021/06/10 11:49:50;;;;;;;;;;;20.00;54.10;;;;;;485612;245;1213;-45
2021/06/10 11:51:52;;;;;;;;;;;20.00;54.10;;;;;;485590;245;1341;-45
2021/06/10 11:53:53;;;;;;;;;;;20.00;54.10;;;;;;485720;245;2135;-45
2021/06/10 11:55:56;;;;;;;;;;;20.00;54.10;;;;;;485551;245;1356;-45